Time;durP1;ratioP1;P1;durP2;ratioP2;P2;SDS_P1;SDS_P2;PMS_P1;PMS_P2;Temp;Humidity;BMP_temperature;BMP_pressure;BME280_temperature;BME280_humidity;BME280_pressure;Samples;Min_cycle;Max_cycle;Signal;HPM_P1;HPM_P2
2023/09/01 00:00:18;;;;;;;5.80;2.75;;;;;;;15.61;76.86;96591.47;6214049;23;20024;-77
2023/09/01 00:02:46;;;;;;;7.15;2.75;;;;;;;15.54;75.94;96575.75;6214130;23;20028;-77
2023/09/01 00:05:14;;;;;;;6.60;2.40;;;;;;;15.50;75.71;96576.41;6214362;23;20024;-77
2023/09/01 00:07:41;;;;;;;8.07;3.13;;;;;;;15.45;75.71;96566.53;6214474;23;20074;-77
2023/09/01 00:10:09;;;;;;;8.02;2.45;;;;;;;15.41;75.47;96567.97;6214527;23;20032;-77
2023/09/01 00:12:37;;;;;;;6.35;2.60;;;;;;;15.36;75.59;96573.06;6217654;23;20025;-77
2023/09/01 00:15:07;;;;;;;3.88;2.50;;;;;;;15.32;75.41;96561.38;6222015;23;20024;-77
2023/09/01 00:17:34;;;;;;;3.78;2.13;;;;;;;15.29;75.74;96562.59;6214319;23;20088;-77
2023/09/01 00:20:04;;;;;;;6.50;2.45;;;;;;;15.29;75.66;96562.59;6214667;23;20099;-77
2023/09/01 00:22:31;;;;;;;5.50;2.58;;;;;;;15.27;75.79;96558.56;6224443;23;20025;-77
2023/09/01 00:24:59;;;;;;;5.53;2.80;;;;;;;15.25;75.70;96561.41;6225811;23;20055;-78
2023/09/01 00:27:26;;;;;;;4.72;2.25;;;;;;;15.28;75.72;96557.53;6214778;23;20094;-77
2023/09/01 00:29:54;;;;;;;4.30;2.28;;;;;;;15.31;75.25;96550.06;6214325;23;20020;-77
2023/09/01 00:32:23;;;;;;;4.20;2.30;;;;;;;15.35;74.91;96555.66;6213680;23;20462;-77
2023/09/01 00:34:56;;;;;;;3.33;1.92;;;;;;;15.40;75.03;96558.47;6214303;23;19958;-77
2023/09/01 00:37:24;;;;;;;6.72;3.00;;;;;;;15.45;77.90;96548.91;6216330;23;20059;-77
2023/09/01 00:39:51;;;;;;;4.78;2.72;;;;;;;15.52;76.53;96545.44;6216361;23;20081;-77
2023/09/01 00:42:19;;;;;;;4.55;2.72;;;;;;;15.59;79.06;96549.66;6216190;23;20080;-77
2023/09/01 00:44:46;;;;;;;3.38;2.55;;;;;;;15.65;79.79;96546.16;6216239;23;20087;-77
2023/09/01 00:47:14;;;;;;;5.10;2.70;;;;;;;15.72;80.41;96545.31;6216280;23;20083;-77
2023/09/01 00:49:43;;;;;;;3.40;2.65;;;;;;;15.74;80.22;96549.38;6216181;23;20020;-77
2023/09/01 00:52:11;;;;;;;3.17;2.40;;;;;;;15.73;77.20;96542.47;6216495;23;20381;-77
2023/09/01 00:54:38;;;;;;;3.78;2.55;;;;;;;15.71;77.84;96535.78;6215345;23;20017;-77
2023/09/01 00:57:06;;;;;;;4.18;2.35;;;;;;;15.71;79.17;96531.38;6216292;23;20021;-77
2023/09/01 00:59:35;;;;;;;2.20;1.75;;;;;;;15.73;77.87;96528.53;6216217;23;20078;-77
2023/09/01 01:02:04;;;;;;;4.35;2.22;;;;;;;15.72;75.47;96532.16;6216121;23;20370;-77
2023/09/01 01:04:32;;;;;;;6.20;2.25;;;;;;;15.71;74.85;96535.78;6218001;23;20051;-77
2023/09/01 01:07:11;;;;;;;4.05;2.15;;;;;;;15.74;77.36;96536.22;6216309;23;20042;-77
2023/09/01 01:09:47;;;;;;;4.75;2.20;;;;;;;15.78;77.07;96533.94;6216194;23;20024;-77
2023/09/01 01:12:22;;;;;;;4.43;2.20;;;;;;;15.77;75.15;96537.59;6216146;23;20052;-77
2023/09/01 01:14:53;;;;;;;3.05;1.95;;;;;;;15.80;77.23;96524.81;6215995;23;20017;-77
2023/09/01 01:17:22;;;;;;;2.67;1.85;;;;;;;15.84;75.07;96528.63;6216387;23;20078;-77
2023/09/01 01:19:52;;;;;;;3.42;2.22;;;;;;;15.88;76.54;96521.09;6215962;23;20044;-77
2023/09/01 01:22:34;;;;;;;2.97;2.00;;;;;;;15.88;75.16;96518.47;6216101;23;20023;-77
2023/09/01 01:25:06;;;;;;;4.20;2.25;;;;;;;15.88;75.28;96521.09;6215879;23;20447;-77
2023/09/01 01:27:33;;;;;;;5.57;1.80;;;;;;;15.86;73.82;96520.50;6216117;23;20354;-77
2023/09/01 01:30:01;;;;;;;3.00;1.75;;;;;;;15.84;74.31;96522.56;6215744;23;20413;-77
2023/09/01 01:32:29;;;;;;;5.85;2.05;;;;;;;15.86;76.19;96526.56;6215529;23;20025;-77
2023/09/01 01:35:05;;;;;;;4.25;2.00;;;;;;;15.89;75.52;96527.97;6215317;23;20017;-77
2023/09/01 01:37:40;;;;;;;6.15;2.67;;;;;;;15.93;78.32;96528.34;6215955;23;20036;-77
2023/09/01 01:40:10;;;;;;;3.83;1.90;;;;;;;15.95;76.83;96519.22;6215874;23;20037;-77
2023/09/01 01:42:39;;;;;;;8.73;2.17;;;;;;;15.96;75.95;96520.00;6215071;23;20029;-77
2023/09/01 01:45:09;;;;;;;2.20;1.88;;;;;;;15.99;78.24;96520.38;6215423;23;20017;-77
2023/09/01 01:47:36;;;;;;;4.05;2.17;;;;;;;15.98;76.37;96517.97;6215024;23;20079;-77
2023/09/01 01:50:05;;;;;;;4.65;2.65;;;;;;;15.94;77.05;96512.34;6215717;23;20024;-77
2023/09/01 01:52:33;;;;;;;3.05;2.55;;;;;;;15.90;76.40;96505.91;6215461;23;20020;-77
2023/09/01 01:55:01;;;;;;;4.22;2.50;;;;;;;15.90;79.08;96508.53;6215245;23;20020;-77
2023/09/01 01:57:30;;;;;;;5.25;2.40;;;;;;;15.91;78.85;96517.22;6215718;23;20028;-77
2023/09/01 01:59:57;;;;;;;6.65;2.75;;;;;;;15.92;78.50;96524.09;6215516;23;20401;-77
2023/09/01 02:02:25;;;;;;;3.72;2.30;;;;;;;15.93;78.23;96526.50;6215302;23;20335;-77
2023/09/01 02:04:52;;;;;;;4.72;2.58;;;;;;;15.94;76.30;96522.88;6215068;23;20021;-77
2023/09/01 02:07:20;;;;;;;3.90;2.65;;;;;;;15.92;76.62;96517.03;6215673;23;20349;-77
2023/09/01 02:09:47;;;;;;;6.80;2.47;;;;;;;15.89;76.06;96514.81;6215306;23;20059;-77
2023/09/01 02:12:15;;;;;;;4.10;2.92;;;;;;;15.87;75.84;96519.47;6215114;23;20071;-77
2023/09/01 02:14:44;;;;;;;2.63;2.20;;;;;;;15.86;77.44;96520.50;6214928;23;20055;-77
2023/09/01 02:17:11;;;;;;;3.97;2.67;;;;;;;15.87;79.20;96522.09;6215051;23;20025;-77
2023/09/01 02:19:39;;;;;;;5.70;2.83;;;;;;;15.90;79.49;96526.94;6223272;23;20028;-78
2023/09/01 02:22:07;;;;;;;3.13;2.40;;;;;;;15.92;79.01;96529.34;6221302;23;20036;-77
2023/09/01 02:24:34;;;;;;;3.65;2.85;;;;;;;15.95;80.10;96535.00;6215019;23;20021;-77
2023/09/01 02:27:04;;;;;;;3.00;2.50;;;;;;;15.94;78.26;96525.50;6215398;23;20024;-77
2023/09/01 02:29:32;;;;;;;4.85;2.72;;;;;;;15.95;78.21;96534.19;6215570;23;20027;-77
2023/09/01 02:32:01;;;;;;;4.13;2.97;;;;;;;15.96;80.67;96538.41;6215689;23;20036;-77
2023/09/01 02:34:28;;;;;;;5.07;2.92;;;;;;;15.98;81.98;96537.22;6214817;23;20025;-77
2023/09/01 02:36:56;;;;;;;4.32;2.90;;;;;;;15.99;80.00;96536.16;6214874;23;20031;-77
2023/09/01 02:39:23;;;;;;;3.85;2.20;;;;;;;16.02;79.14;96538.34;6215063;23;20024;-77
2023/09/01 02:41:51;;;;;;;5.10;2.92;;;;;;;16.05;81.73;96537.94;6215090;23;20420;-77
2023/09/01 02:44:18;;;;;;;6.50;2.75;;;;;;;16.05;80.17;96540.56;6214915;23;20402;-77
2023/09/01 02:46:46;;;;;;;4.15;2.53;;;;;;;16.05;78.65;96535.31;6215173;23;20389;-77
2023/09/01 02:49:15;;;;;;;3.30;2.00;;;;;;;16.09;80.87;96540.13;6215706;23;20059;-77
2023/09/01 02:51:43;;;;;;;2.67;2.33;;;;;;;16.12;80.46;96529.19;6215060;23;20104;-77
2023/09/01 02:54:10;;;;;;;4.47;2.83;;;;;;;16.14;82.18;96532.41;6214730;23;20394;-77
2023/09/01 02:56:38;;;;;;;5.45;3.33;;;;;;;16.17;83.99;96532.75;6214739;23;20523;-77
2023/09/01 02:59:06;;;;;;;4.78;2.25;;;;;;;16.14;81.94;96527.94;6214870;23;20024;-77
2023/09/01 03:01:33;;;;;;;5.63;2.80;;;;;;;16.16;82.53;96527.69;6214589;23;20079;-77
2023/09/01 03:04:01;;;;;;;3.65;2.40;;;;;;;16.14;80.52;96532.41;6214601;23;20028;-77
2023/09/01 03:06:30;;;;;;;5.28;2.35;;;;;;;16.14;79.52;96532.41;6225480;23;20025;-77
2023/09/01 03:08:57;;;;;;;4.72;2.40;;;;;;;16.16;79.34;96530.31;6228522;23;20024;-77
2023/09/01 03:11:25;;;;;;;2.40;2.20;;;;;;;16.19;82.72;96535.16;6215994;23;20024;-77
2023/09/01 03:13:52;;;;;;;2.85;2.15;;;;;;;16.19;81.12;96540.44;6214751;23;20351;-77
2023/09/01 03:16:20;;;;;;;4.70;2.65;;;;;;;16.19;81.30;96541.22;6214917;23;20024;-77
2023/09/01 03:18:48;;;;;;;4.38;2.67;;;;;;;16.21;83.96;96544.44;6214654;23;20474;-77
2023/09/01 03:21:15;;;;;;;3.03;2.65;;;;;;;16.21;83.73;96543.66;6215037;23;20025;-77
2023/09/01 03:23:44;;;;;;;3.90;2.60;;;;;;;16.24;85.20;96543.19;6214079;23;20025;-77
2023/09/01 03:26:12;;;;;;;4.22;3.00;;;;;;;16.26;86.06;96541.94;6215062;23;20020;-77
2023/09/01 03:28:40;;;;;;;4.95;2.70;;;;;;;16.23;83.42;96533.72;6214674;23;20044;-77
2023/09/01 03:31:11;;;;;;;6.70;2.33;;;;;;;16.17;82.16;96534.56;6214295;23;20028;-77
2023/09/01 03:33:39;;;;;;;4.10;2.50;;;;;;;16.10;81.90;96537.28;6213972;23;20096;-77
2023/09/01 03:36:08;;;;;;;7.57;2.60;;;;;;;16.05;81.80;96540.56;6214768;23;20071;-77
2023/09/01 03:38:36;;;;;;;3.65;2.45;;;;;;;16.01;81.76;96523.59;6214089;23;20024;-77
2023/09/01 03:41:05;;;;;;;8.93;2.53;;;;;;;15.98;81.92;96524.06;6214503;23;20024;-77
2023/09/01 03:43:34;;;;;;;3.72;2.47;;;;;;;15.96;81.76;96531.34;6214027;23;20031;-77
2023/09/01 03:46:02;;;;;;;4.25;2.75;;;;;;;15.93;82.19;96531.78;6214238;23;20021;-77
2023/09/01 03:48:30;;;;;;;4.80;2.60;;;;;;;15.94;82.71;96527.31;6214642;23;20020;-77
2023/09/01 03:51:09;;;;;;;4.75;2.90;;;;;;;15.93;83.00;96530.97;6214708;23;20358;-77
2023/09/01 03:53:37;;;;;;;3.38;2.58;;;;;;;15.93;82.09;96533.59;6214202;23;20020;-77
2023/09/01 03:56:10;;;;;;;3.63;2.88;;;;;;;15.94;83.88;96533.41;6214538;23;20027;-77
2023/09/01 03:58:38;;;;;;;3.38;2.53;;;;;;;15.93;82.69;96525.72;6214474;23;20075;-77
2023/09/01 04:01:11;;;;;;;6.20;2.30;;;;;;;15.91;81.98;96520.66;6214400;23;20394;-77
2023/09/01 04:03:41;;;;;;;2.97;2.17;;;;;;;15.91;83.36;96522.50;6214123;23;20525;-77
2023/09/01 04:06:09;;;;;;;5.50;2.80;;;;;;;15.90;82.61;96524.31;6214459;23;20024;-77
2023/09/01 04:08:37;;;;;;;5.60;2.35;;;;;;;15.89;82.29;96516.63;6214503;23;20083;-77
2023/09/01 04:11:04;;;;;;;2.58;2.38;;;;;;;15.87;82.25;96524.75;6214062;23;20409;-77
2023/09/01 04:13:34;;;;;;;3.30;2.50;;;;;;;15.85;82.63;96524.97;6213944;23;20024;-77
2023/09/01 04:16:03;;;;;;;3.83;1.90;;;;;;;15.85;82.40;96527.59;6214239;23;20347;-77
2023/09/01 04:18:31;;;;;;;6.30;2.63;;;;;;;15.86;83.19;96537.09;6214429;23;20024;-77
2023/09/01 04:20:59;;;;;;;3.95;2.20;;;;;;;15.90;82.91;96541.94;6213798;23;20021;-77
2023/09/01 04:23:27;;;;;;;2.85;2.30;;;;;;;15.95;85.40;96542.88;6214266;23;20067;-77
2023/09/01 04:25:54;;;;;;;4.43;2.97;;;;;;;16.00;85.33;96552.75;6214400;23;20025;-76
2023/09/01 04:28:22;;;;;;;4.70;2.80;;;;;;;16.06;86.09;96552.69;6229307;23;20034;-77
2023/09/01 04:30:51;;;;;;;5.57;3.17;;;;;;;16.15;87.92;96555.84;6215925;23;20473;-77
2023/09/01 04:33:18;;;;;;;3.10;2.50;;;;;;;16.19;86.83;96562.28;6214022;23;20027;-77
2023/09/01 04:35:56;;;;;;;4.18;2.40;;;;;;;16.24;87.09;96565.06;6214206;23;20017;-77
2023/09/01 04:38:23;;;;;;;3.38;2.40;;;;;;;16.24;84.52;96569.53;6213729;23;20067;-77
2023/09/01 04:40:55;;;;;;;4.65;2.88;;;;;;;16.26;85.62;96567.47;6214069;23;20021;-76
2023/09/01 04:43:25;;;;;;;4.32;2.53;;;;;;;16.29;85.54;96561.78;6214002;23;20075;-76
2023/09/01 04:45:54;;;;;;;3.88;2.60;;;;;;;16.27;83.65;96561.22;6214068;23;20371;-77
2023/09/01 04:48:22;;;;;;;3.67;2.38;;;;;;;16.26;83.75;96563.00;6214223;23;20088;-77
2023/09/01 04:50:50;;;;;;;4.70;2.45;;;;;;;16.26;84.51;96563.00;6214178;23;20079;-77
2023/09/01 04:53:18;;;;;;;3.25;2.13;;;;;;;16.27;84.80;96563.84;6213932;23;20078;-77
2023/09/01 04:55:46;;;;;;;5.43;2.20;;;;;;;16.28;83.16;96557.53;6213867;23;20095;-77
2023/09/01 04:58:13;;;;;;;5.47;2.50;;;;;;;16.27;83.72;96555.94;6214300;23;20025;-76
2023/09/01 05:00:42;;;;;;;4.57;2.85;;;;;;;16.28;85.21;96560.16;6213986;23;20082;-77
2023/09/01 05:03:11;;;;;;;2.75;1.95;;;;;;;16.28;85.15;96554.91;6213960;23;20020;-78
2023/09/01 05:05:39;;;;;;;2.10;1.85;;;;;;;16.32;84.49;96561.34;6213876;23;20021;-77
2023/09/01 05:08:06;;;;;;;4.10;2.13;;;;;;;16.33;83.26;96556.88;6214212;23;20028;-77
2023/09/01 05:10:34;;;;;;;4.97;2.38;;;;;;;16.33;84.28;96562.13;6214346;23;20397;-77
2023/09/01 05:13:02;;;;;;;3.53;2.15;;;;;;;16.34;84.38;96553.25;6214314;23;20084;-77
2023/09/01 05:15:30;;;;;;;4.60;2.10;;;;;;;16.41;85.99;96560.03;6214049;23;20067;-76
2023/09/01 05:17:58;;;;;;;4.18;2.25;;;;;;;16.49;86.51;96566.84;6214349;23;20027;-76
2023/09/01 05:20:27;;;;;;;3.95;2.28;;;;;;;16.52;85.97;96563.75;6214145;23;20082;-76
2023/09/01 05:22:54;;;;;;;6.20;2.35;;;;;;;16.53;84.79;96556.66;6214892;23;20024;-75
2023/09/01 05:25:22;;;;;;;6.70;3.20;;;;;;;16.55;84.55;96563.34;6215397;23;20021;-76
2023/09/01 05:27:49;;;;;;;5.28;3.03;;;;;;;16.55;83.34;96571.22;6215781;23;20366;-77
2023/09/01 05:30:17;;;;;;;3.40;2.22;;;;;;;16.53;82.77;96565.38;6215874;23;20091;-77
2023/09/01 05:32:45;;;;;;;2.40;2.20;;;;;;;16.53;82.71;96569.81;6215215;23;20086;-76
2023/09/01 05:35:13;;;;;;;3.60;1.92;;;;;;;16.52;82.51;96576.91;6215702;23;20120;-77
2023/09/01 05:37:42;;;;;;;4.18;2.08;;;;;;;16.53;84.30;96570.66;6216272;23;20028;-77
2023/09/01 05:40:11;;;;;;;5.97;2.30;;;;;;;16.56;86.17;96567.56;6216085;23;20025;-75
2023/09/01 05:42:39;;;;;;;4.25;2.13;;;;;;;16.59;85.85;96569.75;6218787;23;20028;-79
2023/09/01 05:45:08;;;;;;;2.95;2.30;;;;;;;16.59;84.65;96575.00;6215555;23;20027;-78
2023/09/01 05:47:36;;;;;;;2.85;1.83;;;;;;;16.58;83.55;96565.50;6215997;23;20021;-79
2023/09/01 05:50:05;;;;;;;3.47;1.80;;;;;;;16.60;82.89;96567.94;6230120;23;20029;-79
2023/09/01 05:52:32;;;;;;;2.60;2.25;;;;;;;16.57;82.37;96561.25;6233410;23;20031;-78
2023/09/01 05:55:01;;;;;;;2.85;2.00;;;;;;;16.59;82.58;96571.56;6219605;23;20025;-77
2023/09/01 05:57:29;;;;;;;4.65;1.90;;;;;;;16.64;83.03;96577.00;6216086;23;20017;-78
2023/09/01 05:59:58;;;;;;;3.08;2.22;;;;;;;16.68;82.38;96578.16;6215695;23;20021;-77
2023/09/01 06:02:25;;;;;;;2.47;1.85;;;;;;;16.69;82.26;96582.41;6215536;23;20185;-77
2023/09/01 06:04:53;;;;;;;3.97;2.70;;;;;;;16.71;83.54;96575.09;6215524;23;20389;-77
2023/09/01 06:07:21;;;;;;;2.45;2.25;;;;;;;16.76;84.55;96583.13;6215595;23;20021;-76
2023/09/01 06:09:49;;;;;;;3.65;2.47;;;;;;;16.82;86.05;96582.28;6215386;23;20071;-76
2023/09/01 06:12:18;;;;;;;2.33;2.13;;;;;;;16.86;87.13;96582.66;6215494;23;20054;-76
2023/09/01 06:14:46;;;;;;;2.72;2.28;;;;;;;16.87;86.81;96587.69;6215291;23;20024;-76
2023/09/01 06:17:14;;;;;;;2.20;2.00;;;;;;;16.91;86.11;96584.63;6214936;23;20144;-76
2023/09/01 06:19:41;;;;;;;3.85;2.20;;;;;;;16.96;86.18;96592.66;6214792;23;20520;-76
2023/09/01 06:22:09;;;;;;;2.42;2.20;;;;;;;17.02;87.61;96579.38;6215251;23;20354;-75
2023/09/01 06:24:36;;;;;;;7.25;2.58;;;;;;;17.04;85.34;96592.34;6214850;23;20079;-75
2023/09/01 06:27:04;;;;;;;3.53;1.88;;;;;;;17.02;83.06;96597.84;6215400;23;20032;-76
2023/09/01 06:29:33;;;;;;;2.22;1.92;;;;;;;17.03;83.70;96598.63;6214635;23;20024;-76
2023/09/01 06:32:01;;;;;;;3.25;1.85;;;;;;;17.06;85.10;96603.47;6214701;23;20025;-76
2023/09/01 06:34:28;;;;;;;2.97;2.00;;;;;;;17.08;83.74;96607.50;6223883;23;20024;-75
2023/09/01 06:36:56;;;;;;;2.25;1.63;;;;;;;17.10;83.05;96607.28;6218809;23;20017;-77
2023/09/01 06:39:24;;;;;;;1.92;1.83;;;;;;;17.13;82.55;96608.66;6215073;23;20040;-77
2023/09/01 06:41:51;;;;;;;3.85;1.50;;;;;;;17.16;82.30;96595.81;6214677;23;20067;-77
2023/09/01 06:44:19;;;;;;;2.25;1.80;;;;;;;17.22;84.45;96602.84;6214620;23;20462;-77
2023/09/01 06:46:49;;;;;;;3.85;1.83;;;;;;;17.27;83.25;96599.53;6214870;23;20016;-77
2023/09/01 06:49:17;;;;;;;2.20;1.65;;;;;;;17.33;82.40;96603.13;6215113;23;20032;-77
2023/09/01 06:51:45;;;;;;;2.40;1.33;;;;;;;17.38;82.24;96611.16;6215456;23;20031;-76
2023/09/01 06:54:12;;;;;;;1.92;1.40;;;;;;;17.43;82.81;96616.56;6214800;23;20086;-77
2023/09/01 06:56:40;;;;;;;2.35;1.30;;;;;;;17.49;83.66;96621.75;6215102;23;20044;-77
2023/09/01 06:59:07;;;;;;;2.92;1.48;;;;;;;17.53;84.28;96627.34;6215190;23;20032;-76
2023/09/01 07:01:35;;;;;;;1.55;1.30;;;;;;;17.57;84.79;96627.72;6214096;23;20477;-76
2023/09/01 07:04:05;;;;;;;2.95;1.50;;;;;;;17.60;85.43;96629.91;6214209;23;20017;-77
2023/09/01 07:06:33;;;;;;;1.42;1.33;;;;;;;17.63;83.34;96634.75;6214912;23;20042;-77
2023/09/01 07:09:00;;;;;;;1.75;1.10;;;;;;;17.68;82.88;96634.84;6214492;23;20473;-77
2023/09/01 07:11:28;;;;;;;1.13;0.90;;;;;;;17.73;82.90;96631.53;6214980;23;20024;-80
2023/09/01 07:13:55;;;;;;;1.60;1.10;;;;;;;17.76;83.67;96623.97;6214539;23;20075;-77
2023/09/01 07:16:24;;;;;;;1.42;1.00;;;;;;;17.81;84.09;96625.94;6213898;23;20462;-77
2023/09/01 07:18:51;;;;;;;1.35;0.90;;;;;;;17.82;82.49;96623.13;6214485;23;20401;-76
2023/09/01 07:21:20;;;;;;;1.00;0.75;;;;;;;17.83;83.93;96629.97;6214644;23;20564;-77
2023/09/01 07:23:49;;;;;;;2.28;1.63;;;;;;;17.84;83.81;96631.59;6213816;23;20478;-77
2023/09/01 07:26:17;;;;;;;2.47;1.00;;;;;;;17.84;82.42;96641.34;6214379;23;20026;-77
2023/09/01 07:28:44;;;;;;;1.83;1.20;;;;;;;17.82;82.89;96649.50;6214812;23;20024;-78
2023/09/01 07:31:13;;;;;;;1.65;1.15;;;;;;;17.84;82.42;96646.63;6214828;23;20032;-77
2023/09/01 07:33:42;;;;;;;0.90;0.80;;;;;;;17.83;82.89;96645.81;6224164;23;20024;-77
2023/09/01 07:36:11;;;;;;;2.80;1.50;;;;;;;17.84;83.52;96651.88;6221963;23;20027;-77
2023/09/01 07:38:40;;;;;;;0.80;0.80;;;;;;;17.82;83.39;96654.78;6213970;23;20014;-77
2023/09/01 07:41:08;;;;;;;0.77;0.77;;;;;;;17.83;84.27;96655.56;6214394;23;20028;-77
2023/09/01 07:43:35;;;;;;;2.28;0.82;;;;;;;17.83;83.93;96655.56;6214118;23;20021;-77
2023/09/01 07:46:03;;;;;;;1.67;0.75;;;;;;;17.83;84.06;96659.00;6213984;23;20024;-77
2023/09/01 07:48:31;;;;;;;1.05;0.70;;;;;;;17.85;83.78;96658.78;6214870;23;20401;-77
2023/09/01 07:50:59;;;;;;;1.27;0.88;;;;;;;17.83;83.09;96660.84;6214643;23;20078;-77
2023/09/01 07:53:26;;;;;;;1.95;0.90;;;;;;;17.83;83.55;96655.56;6214222;23;20078;-77
2023/09/01 07:55:56;;;;;;;5.75;1.35;;;;;;;17.85;84.58;96670.16;6214426;23;20024;-77
2023/09/01 07:58:23;;;;;;;1.38;0.93;;;;;;;17.86;83.69;96670.94;6214179;23;20094;-77
2023/09/01 08:00:52;;;;;;;1.80;0.70;;;;;;;17.85;84.24;96671.97;6214253;23;20025;-77
2023/09/01 08:03:20;;;;;;;0.63;0.63;;;;;;;17.85;84.91;96677.25;6214219;23;20100;-77
2023/09/01 08:05:48;;;;;;;1.02;0.32;;;;;;;17.85;84.20;96678.06;6234732;22;20023;-79
2023/09/01 08:08:16;;;;;;;0.75;0.57;;;;;;;17.85;83.62;96674.63;6240263;22;20064;-80
2023/09/01 08:10:44;;;;;;;0.85;0.50;;;;;;;17.86;83.83;96681.50;6233170;22;20005;-80
2023/09/01 08:13:13;;;;;;;2.17;0.43;;;;;;;17.86;84.97;96692.88;6229977;23;20474;-80
2023/09/01 08:15:41;;;;;;;0.95;0.50;;;;;;;17.86;85.01;96692.88;6231290;23;20021;-80
2023/09/01 08:18:08;;;;;;;1.15;0.70;;;;;;;17.88;85.17;96698.72;6230809;23;20021;-80
2023/09/01 08:20:40;;;;;;;1.73;0.63;;;;;;;17.88;85.22;96696.06;6230436;23;20040;-80
2023/09/01 08:23:08;;;;;;;1.27;0.60;;;;;;;17.89;85.21;96702.19;6219784;23;20039;-80
2023/09/01 08:25:36;;;;;;;1.00;0.68;;;;;;;17.89;85.17;96700.34;6217461;23;20024;-80
2023/09/01 08:28:05;;;;;;;1.23;0.30;;;;;;;17.89;85.09;96707.44;6220238;23;20047;-80
2023/09/01 08:30:34;;;;;;;0.47;0.40;;;;;;;17.89;85.46;96696.91;6224997;23;20024;-80
2023/09/01 08:33:04;;;;;;;0.70;0.40;;;;;;;17.90;85.74;96703.78;6234371;23;20015;-79
2023/09/01 08:35:32;;;;;;;1.80;0.60;;;;;;;17.91;85.82;96703.56;6236189;23;20047;-79
2023/09/01 08:38:01;;;;;;;0.82;0.40;;;;;;;17.93;86.37;96703.34;6220027;23;20149;-79
2023/09/01 08:40:28;;;;;;;0.30;0.30;;;;;;;17.94;85.44;96698.84;6217629;23;20016;-77
2023/09/01 08:42:58;;;;;;;1.27;0.55;;;;;;;17.97;85.94;96704.47;6221711;23;20103;-78
2023/09/01 08:45:28;;;;;;;0.50;0.20;;;;;;;18.00;85.26;96709.31;6214650;23;20028;-78
2023/09/01 08:47:57;;;;;;;0.40;0.40;;;;;;;18.01;85.46;96713.53;6214304;23;20079;-79
2023/09/01 08:50:25;;;;;;;0.65;0.30;;;;;;;18.02;85.00;96707.25;6214137;23;20035;-79
2023/09/01 08:52:53;;;;;;;2.55;0.60;;;;;;;18.04;85.57;96705.19;6214217;23;20401;-78
2023/09/01 08:55:20;;;;;;;1.17;0.50;;;;;;;18.07;86.24;96704.72;6214522;23;20020;-78
2023/09/01 08:57:49;;;;;;;0.75;0.43;;;;;;;18.11;86.19;96699.81;6216473;23;20017;-79
2023/09/01 09:00:17;;;;;;;0.88;0.68;;;;;;;18.17;86.72;96708.63;6215890;23;20096;-78
2023/09/01 09:02:46;;;;;;;0.65;0.60;;;;;;;18.21;86.51;96715.06;6216261;23;20021;-78
2023/09/01 09:05:35;;;;;;;1.25;0.50;;;;;;;18.29;86.49;96712.13;6217413;23;20020;-79
2023/09/01 09:08:06;;;;;;;0.60;0.60;;;;;;;18.38;86.08;96709.94;6216419;23;20363;-79
2023/09/01 09:10:34;;;;;;;0.43;0.40;;;;;;;18.43;84.53;96713.53;6215920;23;20025;-78
2023/09/01 09:13:03;;;;;;;0.75;0.75;;;;;;;18.48;84.72;96713.63;6215941;23;20020;-79
2023/09/01 09:15:31;;;;;;;1.30;0.90;;;;;;;18.53;85.48;96711.09;6216427;23;20021;-79
2023/09/01 09:17:59;;;;;;;0.90;0.80;;;;;;;18.63;84.85;96712.34;6216130;23;20071;-79
2023/09/01 09:20:39;;;;;;;0.47;0.43;;;;;;;18.71;84.01;96704.09;6215840;23;20032;-79
2023/09/01 09:23:07;;;;;;;1.83;0.75;;;;;;;18.81;84.43;96708.84;6215226;23;20395;-80
2023/09/01 09:25:36;;;;;;;0.75;0.50;;;;;;;18.90;84.01;96713.53;6216646;23;20339;-80
2023/09/01 09:28:12;;;;;;;0.75;0.50;;;;;;;18.98;83.64;96711.56;6215992;23;20020;-79
2023/09/01 09:30:49;;;;;;;0.35;0.30;;;;;;;19.02;82.20;96710.88;6215960;23;20103;-79
2023/09/01 09:33:26;;;;;;;0.65;0.40;;;;;;;19.06;82.52;96711.19;6216208;23;20021;-80
2023/09/01 09:35:55;;;;;;;0.50;0.50;;;;;;;19.11;82.38;96713.94;6216731;23;20462;-79
2023/09/01 09:38:23;;;;;;;0.43;0.43;;;;;;;19.18;82.28;96719.94;6221743;23;20404;-79
2023/09/01 09:40:57;;;;;;;0.30;0.30;;;;;;;19.21;81.58;96724.72;6216626;23;20025;-79
2023/09/01 09:43:25;;;;;;;1.77;0.40;;;;;;;19.22;80.59;96731.66;6215590;23;20016;-79
2023/09/01 09:45:53;;;;;;;1.10;0.50;;;;;;;19.21;79.86;96721.28;6216100;23;20021;-79
2023/09/01 09:48:22;;;;;;;2.40;0.50;;;;;;;19.21;79.91;96719.44;6216525;23;20017;-78
2023/09/01 09:50:52;;;;;;;0.55;0.55;;;;;;;19.25;80.25;96719.78;6215849;23;20442;-78
2023/09/01 09:53:23;;;;;;;0.70;0.60;;;;;;;19.27;80.68;96717.72;6215986;23;20025;-78
2023/09/01 09:55:51;;;;;;;2.10;0.50;;;;;;;19.29;80.26;96718.28;6216022;23;20088;-78
2023/09/01 09:58:20;;;;;;;1.05;0.47;;;;;;;19.28;79.81;96724.59;6216027;23;20020;-78
2023/09/01 10:00:51;;;;;;;0.60;0.50;;;;;;;19.27;79.30;96723.81;6215909;23;20032;-79
2023/09/01 10:03:21;;;;;;;0.73;0.40;;;;;;;19.29;79.63;96724.38;6215523;23;20024;-80
2023/09/01 10:05:51;;;;;;;0.57;0.52;;;;;;;19.28;79.64;96728.03;6215764;23;20563;-78
2023/09/01 10:08:20;;;;;;;0.50;0.30;;;;;;;19.29;79.21;96724.38;6235169;22;20028;-82
2023/09/01 10:10:50;;;;;;;0.75;0.63;;;;;;;19.33;79.86;96716.78;6220456;23;20108;-77
2023/09/01 10:13:20;;;;;;;1.02;0.40;;;;;;;19.35;79.56;96710.22;6215418;23;20033;-78
2023/09/01 10:15:49;;;;;;;0.90;0.70;;;;;;;19.39;79.45;96720.31;6215786;23;20028;-77
2023/09/01 10:18:19;;;;;;;2.03;0.95;;;;;;;19.46;78.95;96723.63;6215362;23;20021;-78
2023/09/01 10:20:46;;;;;;;1.05;0.80;;;;;;;19.63;78.00;96729.78;6214964;23;20029;-78
2023/09/01 10:23:14;;;;;;;0.65;0.65;;;;;;;19.75;77.26;96729.78;6215135;23;20075;-78
2023/09/01 10:26:02;;;;;;;1.10;0.60;;;;;;;19.87;77.04;96722.56;6215752;23;20028;-77
2023/09/01 10:28:31;;;;;;;1.75;0.57;;;;;;;20.01;76.77;96723.09;6215317;23;20048;-77
2023/09/01 10:31:19;;;;;;;4.13;0.60;;;;;;;20.08;74.93;96721.09;6215593;23;20401;-78
2023/09/01 10:33:47;;;;;;;0.77;0.52;;;;;;;20.21;74.34;96721.84;6217655;23;20024;-78
2023/09/01 10:36:14;;;;;;;0.63;0.60;;;;;;;20.40;74.95;96712.63;6218539;23;20462;-78
2023/09/01 10:38:42;;;;;;;0.90;0.43;;;;;;;20.60;73.76;96706.00;6220071;23;20042;-78
2023/09/01 10:41:10;;;;;;;0.68;0.45;;;;;;;20.81;74.34;96715.88;6222456;23;20047;-78
2023/09/01 10:43:56;;;;;;;1.17;0.47;;;;;;;21.07;71.37;96713.56;6224484;23;20016;-78
2023/09/01 10:46:25;;;;;;;0.35;0.35;;;;;;;21.27;71.41;96705.84;6225734;23;20024;-79
2023/09/01 10:48:53;;;;;;;0.93;0.30;;;;;;;21.45;70.04;96696.81;6231748;23;20021;-77
2023/09/01 10:51:25;;;;;;;0.65;0.20;;;;;;;21.62;69.18;96715.28;6226853;23;20024;-79
2023/09/01 10:53:55;;;;;;;1.20;0.52;;;;;;;21.80;69.50;96712.31;6224134;23;20048;-77
2023/09/01 10:56:24;;;;;;;2.75;0.63;;;;;;;22.00;68.33;96708.25;6217771;23;20025;-75
2023/09/01 10:58:54;;;;;;;0.73;0.60;;;;;;;22.25;68.87;96706.88;6217859;23;20341;-75
2023/09/01 11:01:30;;;;;;;1.05;0.30;;;;;;;22.42;65.43;96704.91;6217236;23;20082;-75
2023/09/01 11:04:32;;;;;;;1.25;0.65;;;;;;;22.56;68.63;96705.25;6218109;23;20040;-76
2023/09/01 11:07:04;;;;;;;4.25;0.80;;;;;;;22.68;66.74;96711.19;6213422;23;20024;-76
2023/09/01 11:09:55;;;;;;;1.02;0.38;;;;;;;22.75;67.08;96705.66;6215655;23;20020;-76
2023/09/01 11:12:31;;;;;;;1.17;0.57;;;;;;;22.71;63.32;96705.34;6216742;23;20021;-76
2023/09/01 11:15:03;;;;;;;0.47;0.47;;;;;;;22.62;66.92;96702.38;6218735;23;20124;-78
2023/09/01 11:17:39;;;;;;;0.60;0.38;;;;;;;22.57;65.53;96698.88;6195372;23;20073;-77
2023/09/01 11:20:09;;;;;;;0.30;0.30;;;;;;;22.51;65.54;96695.38;6218898;23;20069;-81
2023/09/01 11:22:41;;;;;;;1.17;0.50;;;;;;;22.51;65.27;96706.03;6231732;23;20103;-79
2023/09/01 11:25:12;;;;;;;0.40;0.40;;;;;;;22.54;65.11;96694.91;6232226;23;20024;-79
2023/09/01 11:27:44;;;;;;;1.73;0.70;;;;;;;22.55;63.74;96690.38;6231649;23;20398;-79
2023/09/01 11:30:13;;;;;;;1.75;0.52;;;;;;;22.53;64.25;96687.97;6224841;23;20021;-79
2023/09/01 11:32:41;;;;;;;1.02;0.60;;;;;;;22.56;66.03;96684.78;6224093;23;20381;-80
2023/09/01 11:35:21;;;;;;;0.60;0.52;;;;;;;22.60;64.38;96683.22;6227156;23;20024;-80
2023/09/01 11:37:48;;;;;;;2.08;0.60;;;;;;;22.67;64.67;96682.19;6224270;23;20020;-79
2023/09/01 11:40:17;;;;;;;1.05;0.60;;;;;;;22.72;63.63;96680.38;6224064;23;20021;-80
2023/09/01 11:42:46;;;;;;;0.85;0.50;;;;;;;22.79;64.28;96678.28;6225103;23;20025;-79